Time;durP1;ratioP1;P1;durP2;ratioP2;P2;SDS_P1;SDS_P2;PMS_P1;PMS_P2;Temp;Humidity;BMP_temperature;BMP_pressure;BME280_temperature;BME280_humidity;BME280_pressure;Samples;Min_cycle;Max_cycle;Signal;HPM_P1;HPM_P2
2022/09/03 00:01:14;;;;;;;4.30;3.28;;;20.90;99.90;;;;;;4949672;29;20054;-67
2022/09/03 00:04:43;;;;;;;4.18;3.10;;;20.80;99.90;;;;;;4951075;28;20055;-67
2022/09/03 00:12:08;;;;;;;4.07;3.10;;;20.70;99.90;;;;;;5010793;28;20047;-67
2022/09/03 00:15:22;;;;;;;4.93;3.75;;;20.60;99.90;;;;;;5009492;28;20041;-67
2022/09/03 00:18:32;;;;;;;3.80;3.20;;;20.50;99.90;;;;;;5010916;28;20041;-66
2022/09/03 00:21:42;;;;;;;5.38;3.80;;;20.50;99.90;;;;;;5010172;28;20104;-66
2022/09/03 00:24:49;;;;;;;9.40;4.05;;;20.50;99.90;;;;;;5009831;28;20053;-66
2022/09/03 00:27:56;;;;;;;7.85;3.78;;;20.50;99.90;;;;;;5010580;28;20048;-66
2022/09/03 00:31:26;;;;;;;7.00;3.78;;;20.50;99.90;;;;;;5010414;28;20053;-67
2022/09/03 00:34:44;;;;;;;5.88;3.67;;;20.60;99.90;;;;;;5008838;28;20049;-66
2022/09/03 00:37:49;;;;;;;5.28;3.40;;;20.60;99.90;;;;;;5010611;28;20053;-66
2022/09/03 00:44:57;;;;;;;4.10;3.40;;;20.60;99.90;;;;;;5009911;28;20041;-66
2022/09/03 00:48:16;;;;;;;5.10;3.50;;;20.60;99.90;;;;;;5010147;28;20049;-67
2022/09/03 00:51:33;;;;;;;6.13;3.15;;;20.70;99.90;;;;;;5010007;28;20393;-66
2022/09/03 00:54:44;;;;;;;6.05;3.45;;;20.70;99.90;;;;;;5009948;28;20045;-67
2022/09/03 00:58:08;;;;;;;4.65;2.95;;;20.70;99.90;;;;;;5013898;28;20045;-66
2022/09/03 01:01:46;;;;;;;6.65;3.45;;;20.70;99.90;;;;;;5013578;28;20389;-66
2022/09/03 01:05:18;;;;;;;10.68;3.40;;;20.70;99.90;;;;;;5013191;28;20496;-66
2022/09/03 01:08:43;;;;;;;4.18;2.92;;;20.60;99.90;;;;;;5013255;28;20049;-67
2022/09/03 01:12:17;;;;;;;4.18;3.05;;;20.60;99.90;;;;;;5013436;28;20045;-66
2022/09/03 01:15:50;;;;;;;5.20;2.90;;;20.60;99.90;;;;;;5012906;28;20049;-67
2022/09/03 01:19:08;;;;;;;5.30;3.10;;;20.60;99.90;;;;;;5013513;28;20053;-67
2022/09/03 01:22:57;;;;;;;4.13;2.58;;;20.60;99.90;;;;;;5013217;28;20491;-67
2022/09/03 01:26:14;;;;;;;5.35;2.53;;;20.60;99.90;;;;;;5000367;28;20049;-67
2022/09/03 01:29:50;;;;;;;4.88;2.58;;;20.60;99.90;;;;;;5013306;28;20487;-66
2022/09/03 01:33:15;;;;;;;4.45;2.80;;;20.60;99.90;;;;;;5017745;28;20045;-66
2022/09/03 01:36:41;;;;;;;4.40;2.75;;;20.60;99.90;;;;;;5012980;28;20049;-66
2022/09/03 01:40:07;;;;;;;3.97;2.95;;;20.60;99.90;;;;;;5013080;28;20053;-67
2022/09/03 01:43:35;;;;;;;7.85;3.47;;;20.30;99.90;;;;;;5012756;28;20045;-67
2022/09/03 01:46:41;;;;;;;8.10;3.80;;;20.10;99.90;;;;;;5013061;28;20041;-66
2022/09/03 01:49:59;;;;;;;7.50;3.63;;;19.90;99.90;;;;;;5012636;28;20504;-67
2022/09/03 01:53:17;;;;;;;6.60;3.60;;;19.90;99.90;;;;;;5012377;28;20053;-66
2022/09/03 01:56:46;;;;;;;7.93;3.63;;;19.80;99.90;;;;;;5012548;28;20049;-66
2022/09/03 02:00:15;;;;;;;4.93;3.33;;;19.70;99.90;;;;;;5012561;28;20053;-66
2022/09/03 02:03:19;;;;;;;6.88;4.00;;;19.70;99.90;;;;;;5011643;28;20037;-65
2022/09/03 02:06:24;;;;;;;7.10;3.95;;;19.70;99.90;;;;;;5011720;28;20420;-66
2022/09/03 02:09:28;;;;;;;7.30;4.00;;;19.70;99.90;;;;;;5012346;28;20052;-66
2022/09/03 02:12:36;;;;;;;6.13;4.47;;;19.70;99.90;;;;;;5012451;28;20048;-66
2022/09/03 02:15:44;;;;;;;3.80;3.40;;;19.70;99.90;;;;;;5012226;28;20519;-66
2022/09/03 02:18:55;;;;;;;4.95;3.83;;;19.80;99.90;;;;;;5012468;28;20045;-66
2022/09/03 02:22:18;;;;;;;7.18;4.00;;;19.70;99.90;;;;;;5012392;28;20096;-66
2022/09/03 02:25:31;;;;;;;5.38;4.22;;;19.70;99.90;;;;;;5011822;28;20037;-66
2022/09/03 02:28:36;;;;;;;5.72;4.43;;;19.60;99.90;;;;;;5012140;28;20041;-66
2022/09/03 02:31:40;;;;;;;9.65;4.22;;;19.60;99.90;;;;;;5012248;28;20053;-66
2022/09/03 02:35:03;;;;;;;7.07;4.13;;;19.60;99.90;;;;;;5011810;28;20083;-66
2022/09/03 02:38:17;;;;;;;5.63;3.90;;;19.60;99.90;;;;;;5012693;28;20389;-66
2022/09/03 02:41:39;;;;;;;5.03;3.70;;;19.50;99.90;;;;;;5011844;28;20041;-66
2022/09/03 02:44:56;;;;;;;7.18;4.03;;;19.50;99.90;;;;;;5011453;28;20032;-66
2022/09/03 02:48:00;;;;;;;5.88;3.83;;;19.50;99.90;;;;;;5011742;28;20057;-66
2022/09/03 02:51:04;;;;;;;6.78;3.58;;;19.40;99.90;;;;;;5022130;28;20052;-66
2022/09/03 02:54:10;;;;;;;6.32;4.05;;;19.50;99.90;;;;;;5011273;28;20393;-66
2022/09/03 02:57:15;;;;;;;5.63;4.05;;;19.50;99.90;;;;;;5011521;28;20045;-66
2022/09/03 03:00:19;;;;;;;4.57;3.53;;;19.40;99.90;;;;;;5011366;28;20052;-66
2022/09/03 03:03:42;;;;;;;4.63;3.38;;;19.20;99.90;;;;;;5010903;28;20033;-66
2022/09/03 03:06:49;;;;;;;7.50;4.20;;;19.20;99.90;;;;;;5011221;28;20496;-66
2022/09/03 03:09:53;;;;;;;5.85;4.00;;;19.20;99.90;;;;;;5011439;28;20049;-66
2022/09/03 03:12:57;;;;;;;4.78;4.00;;;19.20;99.90;;;;;;5011024;28;20053;-66
2022/09/03 03:16:05;;;;;;;5.15;3.67;;;19.20;99.90;;;;;;5011279;28;20048;-66
2022/09/03 03:19:08;;;;;;;5.65;4.20;;;19.10;99.90;;;;;;5010861;28;20045;-66
2022/09/03 03:22:12;;;;;;;9.38;4.07;;;19.00;99.90;;;;;;5010044;28;20049;-66
2022/09/03 03:25:16;;;;;;;4.78;4.15;;;18.90;99.90;;;;;;5021241;28;20061;-66
2022/09/03 03:28:41;;;;;;;6.05;4.63;;;18.90;99.90;;;;;;5011124;28;20049;-66
2022/09/03 03:31:45;;;;;;;8.98;4.65;;;18.90;99.90;;;;;;5010945;28;20049;-66
2022/09/03 03:34:48;;;;;;;4.82;4.25;;;18.90;99.90;;;;;;5010369;28;20052;-66
2022/09/03 03:38:11;;;;;;;6.63;4.40;;;18.90;99.90;;;;;;5010623;28;20041;-65
2022/09/03 03:41:21;;;;;;;4.78;4.15;;;18.90;99.90;;;;;;5011322;28;20049;-66
2022/09/03 03:44:25;;;;;;;7.78;4.88;;;19.00;99.90;;;;;;5010475;28;20364;-67
2022/09/03 03:48:07;;;;;;;7.35;4.47;;;19.00;99.90;;;;;;5010979;28;20049;-67
2022/09/03 03:51:29;;;;;;;11.30;4.45;;;19.00;99.90;;;;;;5011036;28;20052;-67
2022/09/03 03:54:52;;;;;;;;;;;19.00;99.90;;;;;;5010416;28;20041;-67
2022/09/03 03:57:57;;;;;;;8.02;4.13;;;19.10;99.90;;;;;;5010859;28;19909;-67
2022/09/03 04:01:06;;;;;;;9.23;4.60;;;19.20;99.90;;;;;;5010990;28;20049;-67
2022/09/03 04:04:10;;;;;;;4.90;4.00;;;19.20;99.90;;;;;;5010176;28;20401;-67
2022/09/03 04:07:14;;;;;;;4.90;3.75;;;19.10;99.90;;;;;;5010828;28;20064;-67
2022/09/03 04:10:37;;;;;;;;;;;18.90;99.90;;;;;;5010881;28;20045;-67
2022/09/03 04:13:43;;;;;;;7.57;4.80;;;18.80;99.90;;;;;;5009752;28;19917;-67
2022/09/03 04:16:47;;;;;;;6.10;4.47;;;18.70;99.90;;;;;;5010551;28;20053;-66
2022/09/03 04:19:51;;;;;;;9.70;4.45;;;18.70;99.90;;;;;;5010170;28;20050;-66
2022/09/03 04:22:59;;;;;;;7.57;4.80;;;18.70;99.90;;;;;;5010632;28;20065;-67
2022/09/03 04:26:05;;;;;;;4.57;4.03;;;18.70;99.90;;;;;;5010119;28;20053;-67
2022/09/03 04:29:09;;;;;;;10.02;4.32;;;18.70;99.90;;;;;;5010439;28;20041;-67
2022/09/03 04:35:36;;;;;;;10.50;4.60;;;18.70;99.90;;;;;;5014729;28;20049;-66
2022/09/03 04:38:42;;;;;;;7.57;4.60;;;18.70;99.90;;;;;;5014942;28;20049;-67
2022/09/03 04:41:46;;;;;;;11.57;5.18;;;18.70;99.90;;;;;;5014461;28;20057;-66
2022/09/03 04:45:09;;;;;;;13.00;6.00;;;18.60;99.90;;;;;;5014147;28;20382;-67
2022/09/03 04:48:13;;;;;;;11.50;6.13;;;18.50;99.90;;;;;;5014885;28;20040;-66
2022/09/03 04:51:37;;;;;;;11.60;5.40;;;18.40;99.90;;;;;;5014165;28;20420;-66
2022/09/03 04:54:41;;;;;;;7.45;5.20;;;18.40;99.90;;;;;;5014356;28;20069;-66
2022/09/03 05:01:15;;;;;;;17.70;6.53;;;18.40;99.90;;;;;;5014096;28;20401;-67
2022/09/03 05:04:18;;;;;;;13.70;5.72;;;18.40;99.90;;;;;;5014370;28;20053;-67
2022/09/03 05:07:22;;;;;;;10.55;4.88;;;18.30;99.90;;;;;;5014398;28;20049;-66
2022/09/03 05:10:27;;;;;;;12.93;6.10;;;18.20;99.90;;;;;;5014081;28;20053;-67
2022/09/03 05:13:32;;;;;;;13.50;5.32;;;18.30;99.90;;;;;;5014123;28;20507;-67
2022/09/03 05:16:36;;;;;;;8.45;4.57;;;18.20;99.90;;;;;;5014017;28;20096;-66
2022/09/03 05:19:40;;;;;;;11.13;4.82;;;18.30;99.90;;;;;;5014368;28;20420;-66
2022/09/03 05:22:44;;;;;;;5.85;4.43;;;18.30;99.90;;;;;;5013840;28;20495;-66
2022/09/03 05:25:57;;;;;;;5.57;4.40;;;18.40;99.90;;;;;;5014064;28;20045;-66
2022/09/03 05:29:06;;;;;;;6.13;4.43;;;18.60;99.90;;;;;;5013952;28;20049;-67
2022/09/03 05:32:30;;;;;;;10.20;3.97;;;18.70;99.90;;;;;;5013438;28;20547;-66
2022/09/03 05:35:33;;;;;;;4.90;3.92;;;18.90;99.90;;;;;;5013911;28;20045;-66
2022/09/03 05:38:38;;;;;;;4.15;3.22;;;19.40;99.90;;;;;;5013967;28;20052;-66
2022/09/03 05:41:42;;;;;;;8.50;3.75;;;20.10;99.90;;;;;;5013849;28;20492;-66
2022/09/03 05:44:48;;;;;;;4.93;3.10;;;21.00;99.90;;;;;;5013895;28;20044;-66
2022/09/03 05:47:52;;;;;;;3.72;3.03;;;21.50;99.90;;;;;;5012853;28;20516;-66
2022/09/03 05:51:03;;;;;;;6.22;3.33;;;21.50;99.90;;;;;;5013776;28;20392;-66
2022/09/03 05:54:08;;;;;;;8.10;3.40;;;21.30;99.90;;;;;;5013721;28;20049;-66
2022/09/03 05:57:13;;;;;;;6.68;3.67;;;21.10;99.90;;;;;;5013407;28;20057;-67
2022/09/03 06:00:18;;;;;;;4.78;3.25;;;20.90;99.90;;;;;;5013198;28;20044;-66
2022/09/03 06:03:22;;;;;;;6.03;3.25;;;20.90;99.90;;;;;;5012661;28;20045;-66
2022/09/03 06:06:46;;;;;;;5.80;3.58;;;20.80;99.90;;;;;;5012868;28;20045;-66
2022/09/03 06:09:50;;;;;;;7.43;3.72;;;20.60;99.90;;;;;;5012747;28;20045;-66
2022/09/03 06:12:54;;;;;;;10.82;3.67;;;20.40;99.90;;;;;;5012977;28;20037;-66
2022/09/03 06:16:18;;;;;;;9.45;4.25;;;20.10;99.90;;;;;;5012794;28;20053;-68
2022/09/03 06:19:41;;;;;;;6.80;3.75;;;19.80;99.90;;;;;;5011710;28;20045;-66
2022/09/03 06:22:51;;;;;;;5.90;3.70;;;19.70;99.90;;;;;;5013171;28;20041;-66
2022/09/03 06:26:00;;;;;;;8.98;4.15;;;19.60;99.90;;;;;;5012952;28;20261;-66
2022/09/03 06:29:04;;;;;;;5.22;4.05;;;19.50;99.90;;;;;;5012731;28;20065;-67
2022/09/03 06:32:09;;;;;;;6.68;4.35;;;19.50;99.90;;;;;;5012116;28;20452;-65
2022/09/03 06:35:14;;;;;;;7.07;4.00;;;19.50;99.90;;;;;;5012393;28;20392;-66
2022/09/03 06:38:38;;;;;;;8.23;4.18;;;19.50;99.90;;;;;;5013435;28;20049;-66
2022/09/03 06:41:43;;;;;;;13.85;4.50;;;19.50;99.90;;;;;;5012399;28;20049;-66
2022/09/03 06:44:47;;;;;;;5.88;3.72;;;19.50;99.90;;;;;;5012844;28;20045;-66
2022/09/03 06:48:10;;;;;;;5.40;4.22;;;19.40;99.90;;;;;;5012480;28;20061;-66
2022/09/03 06:51:20;;;;;;;5.63;3.72;;;19.40;99.90;;;;;;5012164;28;20397;-66
2022/09/03 06:57:46;;;;;;;8.10;4.32;;;19.00;99.90;;;;;;5012058;28;20052;-68
2022/09/03 07:00:53;;;;;;;7.97;4.60;;;18.70;99.90;;;;;;5011540;28;20049;-66
2022/09/03 07:04:02;;;;;;;7.72;4.53;;;18.60;99.90;;;;;;5011704;28;20503;-67
2022/09/03 07:07:12;;;;;;;6.82;3.90;;;18.80;99.90;;;;;;5011659;28;20048;-67
2022/09/03 07:10:19;;;;;;;5.63;4.22;;;18.80;99.90;;;;;;5012057;28;20045;-66
2022/09/03 07:13:23;;;;;;;8.23;4.47;;;18.90;99.90;;;;;;5011790;28;20048;-66
2022/09/03 07:16:31;;;;;;;10.63;3.90;;;19.00;99.90;;;;;;5011297;28;20044;-67
2022/09/03 07:19:35;;;;;;;6.47;4.57;;;19.00;99.90;;;;;;5011664;28;20495;-66
2022/09/03 07:22:39;;;;;;;7.13;3.97;;;19.20;99.90;;;;;;5011812;28;20048;-66
2022/09/03 07:25:43;;;;;;;11.55;4.07;;;19.20;99.90;;;;;;5011785;28;20049;-67
2022/09/03 07:28:47;;;;;;;6.18;4.10;;;19.20;99.90;;;;;;5011515;28;20041;-67
2022/09/03 07:31:52;;;;;;;5.05;3.80;;;19.10;99.90;;;;;;5011726;28;20048;-67
2022/09/03 07:35:14;;;;;;;5.63;4.13;;;19.10;99.90;;;;;;5010330;28;20418;-67
2022/09/03 07:38:18;;;;;;;8.85;4.50;;;19.10;99.90;;;;;;5011532;28;20048;-66
2022/09/03 07:41:23;;;;;;;8.35;4.18;;;19.10;99.90;;;;;;5011332;28;20049;-67
2022/09/03 07:44:28;;;;;;;10.35;4.57;;;18.80;99.90;;;;;;5010915;28;20041;-67
2022/09/03 07:47:33;;;;;;;9.70;4.53;;;18.50;99.90;;;;;;5011410;28;20480;-67
2022/09/03 07:54:01;;;;;;;6.57;4.22;;;18.70;99.90;;;;;;5010938;28;20052;-66
2022/09/03 07:57:24;;;;;;;5.95;4.53;;;18.90;99.90;;;;;;5011268;28;20314;-66
2022/09/03 08:00:28;;;;;;;9.30;4.40;;;19.00;99.90;;;;;;5011487;28;20041;-67
2022/09/03 08:03:32;;;;;;;12.60;4.55;;;19.10;99.90;;;;;;5010871;28;20053;-64
2022/09/03 08:06:39;;;;;;;10.25;4.20;;;19.20;99.90;;;;;;5015032;28;20040;-67
2022/09/03 08:09:43;;;;;;;5.95;4.25;;;19.20;99.90;;;;;;5015190;28;20500;-67
2022/09/03 08:13:06;;;;;;;7.75;4.72;;;19.20;99.90;;;;;;5015312;28;20114;-67
2022/09/03 08:16:12;;;;;;;6.20;4.40;;;19.30;99.90;;;;;;5015087;28;20049;-67
2022/09/03 08:19:18;;;;;;;10.23;4.63;;;19.30;99.90;;;;;;5015186;28;20368;-67
2022/09/03 08:22:24;;;;;;;8.93;4.82;;;19.30;99.90;;;;;;5015003;28;20053;-66
2022/09/03 08:25:28;;;;;;;10.70;4.75;;;19.40;99.90;;;;;;5014730;28;20045;-66
2022/09/03 08:28:34;;;;;;;7.85;5.30;;;19.50;99.90;;;;;;5014839;28;20129;-67
2022/09/03 08:31:38;;;;;;;10.27;4.38;;;19.50;99.90;;;;;;5015106;28;20401;-67
2022/09/03 08:34:41;;;;;;;5.72;4.28;;;19.60;99.90;;;;;;5014079;28;20049;-67
2022/09/03 08:37:48;;;;;;;9.57;5.25;;;19.70;99.90;;;;;;5014760;28;20053;-68
2022/09/03 08:40:54;;;;;;;6.60;5.15;;;19.70;99.90;;;;;;5014413;28;20393;-68
2022/09/03 08:44:16;;;;;;;7.50;5.13;;;19.70;99.90;;;;;;5014134;28;20053;-68
2022/09/03 08:48:12;;;;;;;9.75;4.47;;;19.80;99.90;;;;;;5014623;28;20040;-66
2022/09/03 08:51:20;;;;;;;7.20;4.78;;;19.70;99.90;;;;;;5014574;28;20053;-68
2022/09/03 08:54:28;;;;;;;9.73;4.93;;;19.80;99.90;;;;;;5014373;28;20049;-68
2022/09/03 08:57:41;;;;;;;9.13;5.20;;;19.80;99.90;;;;;;5014444;28;20070;-67
2022/09/03 09:01:00;;;;;;;9.25;5.60;;;19.80;99.90;;;;;;5014054;28;20045;-67
2022/09/03 09:04:47;;;;;;;7.55;5.35;;;19.70;99.90;;;;;;5014121;28;20045;-67
2022/09/03 09:08:11;;;;;;;7.70;6.18;;;19.80;99.90;;;;;;5013822;28;20047;-67
2022/09/03 09:11:30;;;;;;;8.98;6.30;;;19.50;99.90;;;;;;5013940;28;20052;-67
2022/09/03 09:14:57;;;;;;;12.30;6.40;;;19.50;99.90;;;;;;5013580;28;20049;-68
2022/09/03 09:18:32;;;;;;;16.50;6.57;;;19.50;99.90;;;;;;5013959;28;20056;-67
2022/09/03 09:21:44;;;;;;;14.57;6.88;;;19.50;99.90;;;;;;5013524;28;20061;-67
2022/09/03 09:24:49;;;;;;;;;;;19.20;99.90;;;;;;5014410;28;20496;-67
2022/09/03 09:28:02;;;;;;;10.70;7.03;;;19.10;99.90;;;;;;5013680;28;19909;-67
2022/09/03 09:31:11;;;;;;;8.48;6.60;;;19.30;99.90;;;;;;5013824;28;20045;-67
2022/09/03 09:34:15;;;;;;;9.60;5.80;;;19.50;99.90;;;;;;5023956;28;20057;-67
2022/09/03 09:37:20;;;;;;;10.77;6.80;;;19.60;99.90;;;;;;5013566;28;20535;-68
2022/09/03 09:41:20;;;;;;;13.38;6.75;;;19.80;99.90;;;;;;5013503;28;20047;-66
2022/09/03 09:44:25;;;;;;;7.90;5.50;;;20.10;99.90;;;;;;5013192;28;20049;-67
2022/09/03 09:47:50;;;;;;;14.45;6.72;;;20.10;99.90;;;;;;5013584;28;20491;-67
2022/09/03 09:51:04;;;;;;;8.80;6.43;;;20.10;99.90;;;;;;5013605;28;20040;-67
2022/09/03 09:54:18;;;;;;;7.82;5.53;;;20.10;99.90;;;;;;5012874;28;20393;-67
2022/09/03 09:57:24;;;;;;;11.43;6.32;;;20.20;99.90;;;;;;5013814;28;20369;-67
2022/09/03 10:00:33;;;;;;;12.50;5.93;;;20.30;99.90;;;;;;5013269;28;20041;-67
2022/09/03 10:03:55;;;;;;;10.98;6.32;;;20.40;99.90;;;;;;5012565;28;20044;-67
2022/09/03 10:07:21;;;;;;;10.87;6.17;;;20.40;99.90;;;;;;5013108;28;20036;-67
2022/09/03 10:10:27;;;;;;;10.95;6.28;;;20.40;99.90;;;;;;5013301;28;20041;-67
2022/09/03 10:13:41;;;;;;;9.98;6.22;;;20.30;99.90;;;;;;5012966;28;20048;-68
2022/09/03 10:17:30;;;;;;;8.63;5.88;;;20.30;99.90;;;;;;5012991;28;20053;-67
2022/09/03 10:20:47;;;;;;;9.05;5.70;;;20.40;99.90;;;;;;5012793;28;20582;-68
2022/09/03 10:24:26;;;;;;;12.15;6.40;;;20.60;99.90;;;;;;5012319;28;20393;-67
2022/09/03 10:27:31;;;;;;;12.93;6.70;;;20.70;99.90;;;;;;5012554;28;20599;-68
2022/09/03 10:30:46;;;;;;;14.40;6.68;;;20.70;99.90;;;;;;5012552;28;20393;-68
2022/09/03 10:34:09;;;;;;;11.07;6.80;;;20.80;99.90;;;;;;5012614;28;20041;-67
2022/09/03 10:37:24;;;;;;;12.43;6.40;;;20.80;99.90;;;;;;5012548;28;20401;-68
2022/09/03 10:41:05;;;;;;;12.75;6.88;;;20.80;99.90;;;;;;5012618;28;20061;-68
2022/09/03 10:44:34;;;;;;;7.90;5.43;;;20.80;99.90;;;;;;5012351;28;20060;-68
2022/09/03 10:47:58;;;;;;;11.60;6.97;;;20.70;99.90;;;;;;5010609;28;20049;-67
2022/09/03 10:51:15;;;;;;;10.55;6.75;;;20.40;99.90;;;;;;5011296;28;20400;-68
2022/09/03 10:54:37;;;;;;;12.25;6.38;;;20.30;99.90;;;;;;5011221;28;20053;-67
2022/09/03 10:58:22;;;;;;;12.07;7.40;;;20.10;99.90;;;;;;5011672;28;20501;-67
2022/09/03 11:01:57;;;;;;;10.55;7.60;;;19.90;99.90;;;;;;4998683;28;20389;-66
2022/09/03 11:05:23;;;;;;;17.88;10.60;;;19.70;99.90;;;;;;5010828;28;20049;-66
2022/09/03 11:08:41;;;;;;;18.70;11.32;;;19.40;99.90;;;;;;5010642;28;20045;-66
2022/09/03 11:11:53;;;;;;;13.10;11.35;;;19.00;99.90;;;;;;5011112;28;20044;-67
2022/09/03 11:15:04;;;;;;;;;;;18.70;99.90;;;;;;5011548;28;20048;-67
2022/09/03 11:18:20;;;;;;;16.73;12.20;;;18.40;99.90;;;;;;5011003;28;19913;-66
2022/09/03 11:21:26;;;;;;;24.13;13.20;;;18.30;99.90;;;;;;5011056;28;20053;-65
2022/09/03 11:24:32;;;;;;;14.43;11.57;;;18.20;99.90;;;;;;5010477;28;20520;-67
2022/09/03 11:27:42;;;;;;;11.65;9.75;;;18.20;99.90;;;;;;5009883;28;20061;-68
2022/09/03 11:31:22;;;;;;;17.35;8.95;;;18.20;99.90;;;;;;5010987;28;20049;-66
2022/09/03 11:34:47;;;;;;;10.55;8.43;;;18.20;99.90;;;;;;5011061;28;20045;-68
2022/09/03 11:38:01;;;;;;;17.77;11.75;;;18.30;99.90;;;;;;5010841;28;20045;-70
2022/09/03 11:41:26;;;;;;;21.73;15.57;;;18.40;99.90;;;;;;5010650;28;20057;-69
2022/09/03 11:44:53;;;;;;;18.90;12.85;;;18.30;99.90;;;;;;5010595;28;20049;-68
2022/09/03 11:47:58;;;;;;;18.95;13.20;;;18.30;99.90;;;;;;5009958;28;20061;-69
2022/09/03 11:51:03;;;;;;;19.58;13.85;;;18.40;99.90;;;;;;5010666;28;20037;-68
2022/09/03 11:54:24;;;;;;;17.48;13.27;;;18.50;99.90;;;;;;5009185;28;20049;-69
2022/09/03 11:57:31;;;;;;;22.73;15.02;;;18.50;99.90;;;;;;5009457;28;20069;-69
2022/09/03 12:00:37;;;;;;;19.75;15.27;;;18.70;99.90;;;;;;5009981;28;20069;-68
2022/09/03 12:03:47;;;;;;;18.42;14.23;;;18.80;99.90;;;;;;5010198;28;20420;-68
2022/09/03 12:07:18;;;;;;;17.73;14.48;;;19.10;99.90;;;;;;5010360;28;20045;-68
2022/09/03 12:14:50;;;;;;;15.88;10.57;;;19.60;99.90;;;;;;5009538;28;20045;-69
2022/09/03 12:18:19;;;;;;;17.65;10.70;;;20.10;99.90;;;;;;5010423;28;20053;-69
2022/09/03 12:21:25;;;;;;;12.77;8.80;;;20.70;99.90;;;;;;5010867;28;20053;-69
2022/09/03 12:24:30;;;;;;;12.82;8.57;;;21.10;99.90;;;;;;5010160;28;20056;-70
2022/09/03 12:27:53;;;;;;;14.95;9.13;;;21.60;99.90;;;;;;5010633;28;20057;-69
2022/09/03 12:31:19;;;;;;;12.25;7.22;;;22.10;99.90;;;;;;5009893;28;20044;-69
2022/09/03 12:34:26;;;;;;;15.15;9.30;;;22.20;99.90;;;;;;5010084;28;20044;-70
2022/09/03 12:37:35;;;;;;;10.35;7.45;;;22.40;99.90;;;;;;5010669;28;20049;-69
2022/09/03 12:40:42;;;;;;;10.82;8.43;;;22.90;99.90;;;;;;5010119;28;20045;-69
2022/09/03 12:43:52;;;;;;;9.30;7.28;;;23.60;99.90;;;;;;5010013;28;20508;-69
2022/09/03 12:47:16;;;;;;;10.27;6.05;;;24.80;99.90;;;;;;5010392;28;20056;-68
2022/09/03 12:50:23;;;;;;;8.43;5.00;;;26.50;99.90;;;;;;5009930;28;20065;-67
2022/09/03 12:53:31;;;;;;;9.43;5.05;;;28.20;99.90;;;;;;5013707;28;20503;-68
2022/09/03 12:56:37;;;;;;;7.93;3.63;;;28.70;99.90;;;;;;5012802;28;20491;-69
2022/09/03 12:59:42;;;;;;;7.70;3.92;;;30.70;99.90;;;;;;5013955;28;20503;-68
2022/09/03 13:02:59;;;;;;;6.72;3.28;;;32.00;99.90;;;;;;5012257;28;20511;-68
2022/09/03 13:06:09;;;;;;;5.55;3.05;;;32.60;99.90;;;;;;5013153;28;20386;-66
2022/09/03 13:09:17;;;;;;;7.05;3.53;;;32.30;99.90;;;;;;5013133;28;20519;-67
2022/09/03 13:12:50;;;;;;;7.60;3.78;;;32.90;99.90;;;;;;5012944;28;20069;-69
2022/09/03 13:16:14;;;;;;;3.67;2.70;;;33.20;99.90;;;;;;5012747;28;20048;-68
2022/09/03 13:19:33;;;;;;;5.45;3.47;;;33.40;99.90;;;;;;5012529;28;20049;-68
2022/09/03 13:23:08;;;;;;;6.65;3.50;;;31.40;99.90;;;;;;5011599;28;20052;-68
2022/09/03 13:26:41;;;;;;;7.97;3.83;;;31.60;99.90;;;;;;5011717;28;20037;-69
2022/09/03 13:29:54;;;;;;;4.63;3.03;;;32.40;99.90;;;;;;5006591;28;20037;-68
2022/09/03 13:36:50;;;;;;;3.83;2.67;;;35.40;99.90;;;;;;5012827;28;20503;-68
2022/09/03 13:40:30;;;;;;;4.07;2.72;;;36.20;98.60;;;;;;5012765;28;20057;-67
2022/09/03 13:43:52;;;;;;;5.15;3.00;;;35.20;97.50;;;;;;5012346;28;20044;-67
2022/09/03 13:50:20;;;;;;;3.78;3.05;;;33.60;99.20;;;;;;5012273;28;20045;-67
2022/09/03 13:51:30;;;;;;;4.50;3.05;;;33.00;99.90;;;;;;5012639;28;20045;-67
2022/09/03 13:54:44;;;;;;;5.25;2.72;;;32.40;99.90;;;;;;5012202;28;20518;-68
2022/09/03 13:57:52;;;;;;;6.78;3.10;;;32.50;99.90;;;;;;5012043;28;20041;-67
2022/09/03 14:01:15;;;;;;;5.50;3.17;;;32.40;99.90;;;;;;5012359;28;20496;-67
2022/09/03 14:04:26;;;;;;;9.15;2.97;;;30.70;99.90;;;;;;5011542;28;20068;-67
2022/09/03 14:08:21;;;;;;;5.80;3.67;;;29.10;99.90;;;;;;5011643;28;20041;-67
2022/09/03 14:11:50;;;;;;;4.95;3.70;;;27.40;99.90;;;;;;5011611;28;20511;-67
2022/09/03 14:14:58;;;;;;;4.88;3.58;;;27.40;99.90;;;;;;5022252;28;20044;-67
2022/09/03 14:18:22;;;;;;;6.93;3.28;;;26.40;99.90;;;;;;5011444;28;20045;-66
2022/09/03 14:21:40;;;;;;;8.23;4.15;;;27.50;99.90;;;;;;5022197;28;20037;-67
2022/09/03 14:25:22;;;;;;;6.70;3.83;;;27.40;99.90;;;;;;5010437;28;20060;-68
2022/09/03 14:28:30;;;;;;;6.22;4.63;;;27.40;99.90;;;;;;5011544;28;20045;-66
2022/09/03 14:31:51;;;;;;;6.47;3.85;;;26.40;99.90;;;;;;5011170;28;20052;-67
2022/09/03 14:34:55;;;;;;;5.80;3.65;;;26.70;99.90;;;;;;5010294;28;20049;-67
2022/09/03 14:37:58;;;;;;;4.20;3.00;;;26.30;99.90;;;;;;5011639;28;20048;-67
2022/09/03 14:41:21;;;;;;;4.88;3.03;;;25.50;99.90;;;;;;5011734;28;20211;-67
2022/09/03 14:44:47;;;;;;;6.35;2.80;;;25.20;99.90;;;;;;5010666;28;20396;-67
2022/09/03 14:51:53;;;;;;;2.92;2.60;;;25.50;99.90;;;;;;5011473;28;20048;-66
2022/09/03 14:55:24;;;;;;;3.22;2.67;;;25.40;99.90;;;;;;5010465;28;20502;-66
2022/09/03 14:58:48;;;;;;;7.82;3.22;;;25.20;99.90;;;;;;5011415;28;20044;-66
2022/09/03 15:02:11;;;;;;;4.57;3.08;;;25.10;99.90;;;;;;5010959;28;20049;-67
2022/09/03 15:05:35;;;;;;;4.80;3.17;;;24.10;99.90;;;;;;5010331;28;20049;-67
2022/09/03 15:09:05;;;;;;;5.15;3.50;;;24.00;99.90;;;;;;5011300;28;20053;-67
2022/09/03 15:12:12;;;;;;;4.07;3.20;;;24.40;99.90;;;;;;5013533;28;20049;-68
2022/09/03 15:15:30;;;;;;;5.88;3.00;;;24.60;99.90;;;;;;5009677;28;20049;-68
2022/09/03 15:18:47;;;;;;;4.65;3.00;;;24.30;99.90;;;;;;5011289;28;20045;-68
2022/09/03 15:21:58;;;;;;;4.88;3.47;;;24.50;99.90;;;;;;5010704;28;20049;-68
2022/09/03 15:25:20;;;;;;;5.05;2.78;;;24.80;99.90;;;;;;5010204;28;20049;-68
2022/09/03 15:28:42;;;;;;;4.28;2.90;;;24.60;99.90;;;;;;5010101;28;20061;-69
2022/09/03 15:32:07;;;;;;;4.10;3.00;;;24.30;99.90;;;;;;5010147;28;20045;-67
2022/09/03 15:35:42;;;;;;;5.70;2.90;;;23.70;99.90;;;;;;5009879;28;20049;-69
2022/09/03 15:38:50;;;;;;;4.30;3.63;;;23.70;99.90;;;;;;5010615;28;20048;-68
2022/09/03 15:42:09;;;;;;;5.32;3.17;;;23.50;99.90;;;;;;5021187;28;20400;-68
2022/09/03 15:45:24;;;;;;;4.43;3.30;;;23.40;99.90;;;;;;5009297;28;20048;-68
2022/09/03 15:48:43;;;;;;;4.63;3.28;;;23.30;99.90;;;;;;5012487;28;20500;-67
2022/09/03 15:52:15;;;;;;;6.88;3.80;;;23.50;99.90;;;;;;5021201;28;20044;-67
2022/09/03 15:55:58;;;;;;;4.57;3.28;;;23.70;99.90;;;;;;5003736;28;20053;-68
2022/09/03 15:59:11;;;;;;;6.28;3.38;;;23.70;99.90;;;;;;5014419;28;20061;-68
2022/09/03 16:02:39;;;;;;;4.60;3.25;;;23.60;99.90;;;;;;5023860;28;20074;-68
2022/09/03 16:09:33;;;;;;;5.32;3.33;;;23.50;99.90;;;;;;5030048;28;20045;-68
2022/09/03 16:13:00;;;;;;;5.45;3.28;;;23.50;99.90;;;;;;5030245;28;20039;-68
2022/09/03 16:16:10;;;;;;;6.60;2.92;;;23.70;99.90;;;;;;5029922;28;20052;-68
2022/09/03 16:23:54;;;;;;;6.60;2.90;;;24.00;99.90;;;;;;4996223;28;20048;-68
2022/09/03 16:27:20;;;;;;;6.50;3.03;;;23.80;99.90;;;;;;5031389;28;20044;-68
2022/09/03 16:30:57;;;;;;;4.50;3.03;;;23.70;99.90;;;;;;5034190;28;20037;-68
2022/09/03 16:34:24;;;;;;;6.03;3.22;;;23.70;99.90;;;;;;5033120;28;20045;-68
2022/09/03 16:41:33;;;;;;;5.40;3.65;;;23.40;99.90;;;;;;5033824;28;20036;-68
2022/09/03 16:45:18;;;;;;;7.22;3.70;;;23.30;99.90;;;;;;5032121;28;20419;-69
2022/09/03 16:48:45;;;;;;;5.28;3.05;;;23.40;99.90;;;;;;5032976;28;20048;-68
2022/09/03 16:52:04;;;;;;;5.28;3.03;;;23.30;99.90;;;;;;5034180;28;20045;-68
2022/09/03 16:59:58;;;;;;;5.00;3.17;;;23.10;99.90;;;;;;5034077;28;20045;-68
2022/09/03 17:03:23;;;;;;;5.35;3.38;;;23.00;99.90;;;;;;5033736;28;20047;-68
2022/09/03 17:10:30;;;;;;;6.43;3.42;;;22.50;99.90;;;;;;5033870;28;20048;-68
2022/09/03 17:13:40;;;;;;;4.27;2.80;;;22.40;99.90;;;;;;5034031;28;20049;-68
2022/09/03 17:17:07;;;;;;;7.22;3.38;;;22.30;99.90;;;;;;5032913;28;20539;-68
2022/09/03 17:21:09;;;;;;;8.48;3.58;;;22.30;99.90;;;;;;5033146;28;20523;-68
2022/09/03 17:24:40;;;;;;;7.38;3.10;;;22.20;99.90;;;;;;5033017;28;20044;-68
2022/09/03 17:28:02;;;;;;;8.65;3.35;;;22.10;99.90;;;;;;5033713;28;20040;-68
2022/09/03 17:31:39;;;;;;;6.07;3.40;;;22.00;99.90;;;;;;5033581;28;20385;-67
2022/09/03 17:35:12;;;;;;;5.13;3.53;;;21.90;99.90;;;;;;5033121;28;20056;-69
2022/09/03 17:42:22;;;;;;;5.20;3.28;;;21.70;99.90;;;;;;5032185;28;20061;-68
2022/09/03 17:46:11;;;;;;;5.85;3.28;;;21.70;99.90;;;;;;5032743;28;20040;-68
2022/09/03 17:49:33;;;;;;;5.63;3.80;;;21.60;99.90;;;;;;5035713;28;20040;-68
2022/09/03 17:52:50;;;;;;;6.60;3.67;;;21.50;99.90;;;;;;5032831;28;20061;-67
2022/09/03 17:56:00;;;;;;;7.63;3.58;;;21.50;99.90;;;;;;5033128;28;20056;-67